sensor_id;sensor_type;location;lat;lon;timestamp;pressure;altitude;pressure_sealevel;temperature;humidity
5753;BME280;2901;42.140;24.760;2022-11-30T00:00:58;99775.06;;;8.89;100.00
5753;BME280;2901;42.140;24.760;2022-11-30T00:03:24;99769.91;;;8.89;100.00
5753;BME280;2901;42.140;24.760;2022-11-30T00:05:50;99780.22;;;8.92;100.00
5753;BME280;2901;42.140;24.760;2022-11-30T00:08:16;99778.47;;;8.90;100.00
5753;BME280;2901;42.140;24.760;2022-11-30T00:10:42;99783.69;;;8.96;100.00
5753;BME280;2901;42.140;24.760;2022-11-30T00:13:08;99781.13;;;8.96;100.00
5753;BME280;2901;42.140;24.760;2022-11-30T00:15:34;99773.31;;;8.88;100.00
5753;BME280;2901;42.140;24.760;2022-11-30T00:18:00;99772.44;;;8.81;100.00
5753;BME280;2901;42.140;24.760;2022-11-30T00:20:26;99789.66;;;8.84;100.00
5753;BME280;2901;42.140;24.760;2022-11-30T00:22:55;99783.63;;;8.85;100.00
5753;BME280;2901;42.140;24.760;2022-11-30T00:25:21;99787.91;;;8.86;100.00
5753;BME280;2901;42.140;24.760;2022-11-30T00:27:46;99775.84;;;8.80;100.00
5753;BME280;2901;42.140;24.760;2022-11-30T00:30:12;99775.81;;;8.71;100.00
5753;BME280;2901;42.140;24.760;2022-11-30T00:32:38;99780.06;;;8.59;100.00
5753;BME280;2901;42.140;24.760;2022-11-30T00:35:03;99776.59;;;8.60;100.00
5753;BME280;2901;42.140;24.760;2022-11-30T00:37:29;99778.34;;;8.64;100.00
5753;BME280;2901;42.140;24.760;2022-11-30T00:39:54;99776.66;;;8.69;100.00
5753;BME280;2901;42.140;24.760;2022-11-30T00:42:19;99770.63;;;8.67;100.00
5753;BME280;2901;42.140;24.760;2022-11-30T00:44:45;99768.94;;;8.72;100.00
5753;BME280;2901;42.140;24.760;2022-11-30T00:47:10;99767.22;;;8.72;100.00
5753;BME280;2901;42.140;24.760;2022-11-30T00:49:36;99781.84;;;8.72;100.00
5753;BME280;2901;42.140;24.760;2022-11-30T00:52:02;99771.53;;;8.75;100.00
5753;BME280;2901;42.140;24.760;2022-11-30T00:54:28;99768.94;;;8.76;100.00
5753;BME280;2901;42.140;24.760;2022-11-30T00:56:53;99761.19;;;8.76;100.00
5753;BME280;2901;42.140;24.760;2022-11-30T00:59:19;99761.13;;;8.63;100.00
5753;BME280;2901;42.140;24.760;2022-11-30T01:01:44;99768.84;;;8.55;100.00
5753;BME280;2901;42.140;24.760;2022-11-30T01:04:10;99770.56;;;8.55;100.00
5753;BME280;2901;42.140;24.760;2022-11-30T01:06:36;99760.19;;;8.50;100.00
5753;BME280;2901;42.140;24.760;2022-11-30T01:09:02;99760.22;;;8.52;100.00
5753;BME280;2901;42.140;24.760;2022-11-30T01:11:29;99763.63;;;8.48;100.00
5753;BME280;2901;42.140;24.760;2022-11-30T01:13:57;99765.34;;;8.50;100.00
5753;BME280;2901;42.140;24.760;2022-11-30T01:16:25;99764.53;;;8.53;100.00
5753;BME280;2901;42.140;24.760;2022-11-30T01:18:51;99755.03;;;8.53;100.00
5753;BME280;2901;42.140;24.760;2022-11-30T01:21:20;99763.63;;;8.46;100.00
5753;BME280;2901;42.140;24.760;2022-11-30T01:23:46;99761.06;;;8.54;100.00
5753;BME280;2901;42.140;24.760;2022-11-30T01:26:12;99766.28;;;8.60;100.00
5753;BME280;2901;42.140;24.760;2022-11-30T01:28:38;99759.41;;;8.59;100.00
5753;BME280;2901;42.140;24.760;2022-11-30T01:31:07;99763.69;;;8.63;100.00
5753;BME280;2901;42.140;24.760;2022-11-30T01:33:33;99763.69;;;8.63;100.00
5753;BME280;2901;42.140;24.760;2022-11-30T01:36:01;99763.72;;;8.64;100.00
5753;BME280;2901;42.140;24.760;2022-11-30T01:38:31;99764.59;;;8.65;100.00
5753;BME280;2901;42.140;24.760;2022-11-30T01:40:56;99758.56;;;8.64;100.00
5753;BME280;2901;42.140;24.760;2022-11-30T01:43:42;99747.34;;;8.61;100.00
5753;BME280;2901;42.140;24.760;2022-11-30T01:49:05;99759.44;;;8.69;100.00
5753;BME280;2901;42.140;24.760;2022-11-30T01:51:37;99750.00;;;8.68;100.00
5753;BME280;2901;42.140;24.760;2022-11-30T01:54:07;99751.69;;;8.62;100.00
5753;BME280;2901;42.140;24.760;2022-11-30T01:56:35;99751.63;;;8.54;100.00
5753;BME280;2901;42.140;24.760;2022-11-30T01:59:02;99749.00;;;8.48;100.00
5753;BME280;2901;42.140;24.760;2022-11-30T02:01:27;99747.28;;;8.43;100.00
5753;BME280;2901;42.140;24.760;2022-11-30T02:04:01;99743.81;;;8.44;100.00
5753;BME280;2901;42.140;24.760;2022-11-30T02:06:27;99747.28;;;8.43;100.00
5753;BME280;2901;42.140;24.760;2022-11-30T02:08:54;99751.56;;;8.44;100.00
5753;BME280;2901;42.140;24.760;2022-11-30T02:11:19;99746.38;;;8.44;100.00
5753;BME280;2901;42.140;24.760;2022-11-30T02:13:59;99742.91;;;8.37;100.00
5753;BME280;2901;42.140;24.760;2022-11-30T02:16:40;99742.91;;;8.34;100.00
5753;BME280;2901;42.140;24.760;2022-11-30T02:19:30;99745.50;;;8.39;100.00
5753;BME280;2901;42.140;24.760;2022-11-30T02:24:47;99732.56;;;8.34;100.00
5753;BME280;2901;42.140;24.760;2022-11-30T02:29:43;99744.69;;;8.44;100.00
5753;BME280;2901;42.140;24.760;2022-11-30T02:32:22;99742.09;;;8.44;100.00
5753;BME280;2901;42.140;24.760;2022-11-30T02:34:50;99746.41;;;8.47;100.00
5753;BME280;2901;42.140;24.760;2022-11-30T02:37:18;99749.00;;;8.50;100.00
5753;BME280;2901;42.140;24.760;2022-11-30T02:39:45;99746.44;;;8.48;100.00
5753;BME280;2901;42.140;24.760;2022-11-30T02:42:12;99749.06;;;8.56;100.00
5753;BME280;2901;42.140;24.760;2022-11-30T02:44:42;99748.19;;;8.55;100.00
5753;BME280;2901;42.140;24.760;2022-11-30T02:47:17;99752.50;;;8.58;100.00
5753;BME280;2901;42.140;24.760;2022-11-30T02:49:49;99753.38;;;8.58;100.00
5753;BME280;2901;42.140;24.760;2022-11-30T02:52:17;99752.53;;;8.62;100.00
5753;BME280;2901;42.140;24.760;2022-11-30T02:54:44;99749.97;;;8.62;100.00
5753;BME280;2901;42.140;24.760;2022-11-30T02:57:10;99748.22;;;8.63;100.00
5753;BME280;2901;42.140;24.760;2022-11-30T02:59:35;99765.44;;;8.61;100.00
5753;BME280;2901;42.140;24.760;2022-11-30T03:02:01;99760.25;;;8.61;100.00
5753;BME280;2901;42.140;24.760;2022-11-30T03:04:26;99762.88;;;8.62;100.00
5753;BME280;2901;42.140;24.760;2022-11-30T03:06:51;99761.16;;;8.64;100.00
5753;BME280;2901;42.140;24.760;2022-11-30T03:09:17;99756.88;;;8.71;100.00
5753;BME280;2901;42.140;24.760;2022-11-30T03:11:42;99762.06;;;8.72;100.00
5753;BME280;2901;42.140;24.760;2022-11-30T03:14:08;99764.66;;;8.72;100.00
5753;BME280;2901;42.140;24.760;2022-11-30T03:16:33;99760.31;;;8.68;100.00
5753;BME280;2901;42.140;24.760;2022-11-30T03:18:58;99759.38;;;8.53;100.00
5753;BME280;2901;42.140;24.760;2022-11-30T03:21:24;99763.66;;;8.49;100.00
5753;BME280;2901;42.140;24.760;2022-11-30T03:23:50;99760.19;;;8.47;100.00
5753;BME280;2901;42.140;24.760;2022-11-30T03:26:15;99755.81;;;8.40;100.00
5753;BME280;2901;42.140;24.760;2022-11-30T03:28:40;99753.28;;;8.45;100.00
5753;BME280;2901;42.140;24.760;2022-11-30T03:31:10;99755.88;;;8.48;100.00
5753;BME280;2901;42.140;24.760;2022-11-30T03:33:35;99757.59;;;8.43;100.00
5753;BME280;2901;42.140;24.760;2022-11-30T03:36:02;99759.31;;;8.50;100.00
5753;BME280;2901;42.140;24.760;2022-11-30T03:38:28;99759.38;;;8.53;100.00
5753;BME280;2901;42.140;24.760;2022-11-30T03:41:07;99764.53;;;8.57;100.00
5753;BME280;2901;42.140;24.760;2022-11-30T03:43:35;99762.00;;;8.63;100.00
5753;BME280;2901;42.140;24.760;2022-11-30T03:46:00;99764.59;;;8.68;100.00
5753;BME280;2901;42.140;24.760;2022-11-30T03:48:26;99774.97;;;8.75;100.00
5753;BME280;2901;42.140;24.760;2022-11-30T03:50:51;99781.88;;;8.75;100.00
5753;BME280;2901;42.140;24.760;2022-11-30T03:53:18;99774.97;;;8.75;100.00
5753;BME280;2901;42.140;24.760;2022-11-30T03:55:44;99774.97;;;8.74;100.00
5753;BME280;2901;42.140;24.760;2022-11-30T03:58:09;99773.22;;;8.71;100.00
5753;BME280;2901;42.140;24.760;2022-11-30T04:00:35;99768.06;;;8.68;100.00
5753;BME280;2901;42.140;24.760;2022-11-30T04:03:01;99774.94;;;8.71;100.00
5753;BME280;2901;42.140;24.760;2022-11-30T04:05:26;99770.66;;;8.76;100.00
5753;BME280;2901;42.140;24.760;2022-11-30T04:07:51;99769.78;;;8.68;100.00
5753;BME280;2901;42.140;24.760;2022-11-30T04:10:17;99768.03;;;8.67;100.00
5753;BME280;2901;42.140;24.760;2022-11-30T04:12:42;99781.00;;;8.77;100.00
5753;BME280;2901;42.140;24.760;2022-11-30T04:15:08;99777.56;;;8.75;100.00
5753;BME280;2901;42.140;24.760;2022-11-30T04:17:33;99781.88;;;8.75;100.00
5753;BME280;2901;42.140;24.760;2022-11-30T04:19:59;99780.09;;;8.71;100.00
5753;BME280;2901;42.140;24.760;2022-11-30T04:22:24;99774.09;;;8.69;100.00
5753;BME280;2901;42.140;24.760;2022-11-30T04:24:49;99781.78;;;8.63;100.00
5753;BME280;2901;42.140;24.760;2022-11-30T04:27:15;99778.34;;;8.59;100.00
5753;BME280;2901;42.140;24.760;2022-11-30T04:29:40;99785.19;;;8.53;100.00
5753;BME280;2901;42.140;24.760;2022-11-30T04:32:05;99774.81;;;8.45;100.00
5753;BME280;2901;42.140;24.760;2022-11-30T04:34:31;99780.72;;;8.33;100.00
5753;BME280;2901;42.140;24.760;2022-11-30T04:36:56;99773.00;;;8.37;100.00
5753;BME280;2901;42.140;24.760;2022-11-30T04:39:21;99776.25;;;8.14;100.00
5753;BME280;2901;42.140;24.760;2022-11-30T04:41:47;99782.28;;;8.13;100.00
5753;BME280;2901;42.140;24.760;2022-11-30T04:44:12;99783.16;;;8.17;100.00
5753;BME280;2901;42.140;24.760;2022-11-30T04:46:38;99778.84;;;8.13;100.00
5753;BME280;2901;42.140;24.760;2022-11-30T04:49:03;99784.88;;;8.16;100.00
5753;BME280;2901;42.140;24.760;2022-11-30T04:51:28;99778.84;;;8.13;100.00
5753;BME280;2901;42.140;24.760;2022-11-30T04:53:54;99768.41;;;7.96;100.00
5753;BME280;2901;42.140;24.760;2022-11-30T04:56:19;99777.91;;;8.05;100.00
5753;BME280;2901;42.140;24.760;2022-11-30T04:58:45;99766.69;;;7.97;100.00
5753;BME280;2901;42.140;24.760;2022-11-30T05:01:10;99774.47;;;8.06;100.00
5753;BME280;2901;42.140;24.760;2022-11-30T05:03:35;99784.00;;;8.17;100.00
5753;BME280;2901;42.140;24.760;2022-11-30T05:06:01;99784.91;;;8.21;100.00
5753;BME280;2901;42.140;24.760;2022-11-30T05:08:27;99789.31;;;8.31;100.00
5753;BME280;2901;42.140;24.760;2022-11-30T05:10:54;99785.97;;;8.40;100.00
5753;BME280;2901;42.140;24.760;2022-11-30T05:13:20;99780.81;;;8.43;100.00
5753;BME280;2901;42.140;24.760;2022-11-30T05:15:46;99781.72;;;8.51;100.00
5753;BME280;2901;42.140;24.760;2022-11-30T05:18:12;99788.63;;;8.58;100.00
5753;BME280;2901;42.140;24.760;2022-11-30T05:20:39;99790.38;;;8.63;100.00
5753;BME280;2901;42.140;24.760;2022-11-30T05:23:05;99796.41;;;8.62;100.00
5753;BME280;2901;42.140;24.760;2022-11-30T05:25:30;99793.00;;;8.68;100.00
5753;BME280;2901;42.140;24.760;2022-11-30T05:27:56;99798.16;;;8.68;100.00
5753;BME280;2901;42.140;24.760;2022-11-30T05:30:21;99806.78;;;8.68;100.00
5753;BME280;2901;42.140;24.760;2022-11-30T05:32:46;99805.00;;;8.63;100.00
5753;BME280;2901;42.140;24.760;2022-11-30T05:35:12;99804.94;;;8.49;100.00
5753;BME280;2901;42.140;24.760;2022-11-30T05:37:38;99809.28;;;8.55;100.00
5753;BME280;2901;42.140;24.760;2022-11-30T05:40:04;99823.94;;;8.63;100.00
5753;BME280;2901;42.140;24.760;2022-11-30T05:42:30;99818.78;;;8.62;100.00
5753;BME280;2901;42.140;24.760;2022-11-30T05:44:55;99828.25;;;8.61;100.00
5753;BME280;2901;42.140;24.760;2022-11-30T05:47:21;99819.63;;;8.61;100.00
5753;BME280;2901;42.140;24.760;2022-11-30T05:49:46;99829.88;;;8.49;100.00
5753;BME280;2901;42.140;24.760;2022-11-30T05:52:11;99829.00;;;8.48;100.00
5753;BME280;2901;42.140;24.760;2022-11-30T05:54:37;99836.78;;;8.54;100.00
5753;BME280;2901;42.140;24.760;2022-11-30T05:57:02;99836.84;;;8.59;100.00
5753;BME280;2901;42.140;24.760;2022-11-30T05:59:29;99832.50;;;8.58;100.00
5753;BME280;2901;42.140;24.760;2022-11-30T06:01:54;99825.59;;;8.52;100.00
5753;BME280;2901;42.140;24.760;2022-11-30T06:04:20;99829.91;;;8.55;100.00
5753;BME280;2901;42.140;24.760;2022-11-30T06:06:45;99819.59;;;8.55;100.00
5753;BME280;2901;42.140;24.760;2022-11-30T06:09:11;99835.91;;;8.54;100.00
5753;BME280;2901;42.140;24.760;2022-11-30T06:11:37;99835.06;;;8.55;100.00
5753;BME280;2901;42.140;24.760;2022-11-30T06:14:02;99835.94;;;8.57;100.00
5753;BME280;2901;42.140;24.760;2022-11-30T06:16:28;99840.19;;;8.50;100.00
5753;BME280;2901;42.140;24.760;2022-11-30T06:18:53;99835.06;;;8.55;100.00
5753;BME280;2901;42.140;24.760;2022-11-30T06:21:19;99839.38;;;8.54;100.00
5753;BME280;2901;42.140;24.760;2022-11-30T06:23:44;99841.06;;;8.51;100.00
5753;BME280;2901;42.140;24.760;2022-11-30T06:26:11;99842.72;;;8.40;100.00
5753;BME280;2901;42.140;24.760;2022-11-30T06:28:37;99849.59;;;8.39;100.00
5753;BME280;2901;42.140;24.760;2022-11-30T06:31:05;99853.00;;;8.35;100.00
5753;BME280;2901;42.140;24.760;2022-11-30T06:33:31;99856.28;;;8.23;100.00
5753;BME280;2901;42.140;24.760;2022-11-30T06:35:56;99858.03;;;8.27;100.00
5753;BME280;2901;42.140;24.760;2022-11-30T06:38:22;99853.75;;;8.26;100.00
5753;BME280;2901;42.140;24.760;2022-11-30T06:40:48;99860.53;;;8.17;100.00
5753;BME280;2901;42.140;24.760;2022-11-30T06:43:14;99858.84;;;8.20;100.00
5753;BME280;2901;42.140;24.760;2022-11-30T06:45:42;99859.75;;;8.22;100.00
5753;BME280;2901;42.140;24.760;2022-11-30T06:48:08;99860.63;;;8.27;100.00
5753;BME280;2901;42.140;24.760;2022-11-30T06:50:34;99855.53;;;8.33;100.00
5753;BME280;2901;42.140;24.760;2022-11-30T06:52:59;99850.31;;;8.27;100.00
5753;BME280;2901;42.140;24.760;2022-11-30T06:55:24;99851.19;;;8.26;100.00
5753;BME280;2901;42.140;24.760;2022-11-30T06:57:50;99857.22;;;8.30;100.00
5753;BME280;2901;42.140;24.760;2022-11-30T07:00:15;99853.00;;;8.38;100.00
5753;BME280;2901;42.140;24.760;2022-11-30T07:02:41;99862.50;;;8.41;100.00
5753;BME280;2901;42.140;24.760;2022-11-30T07:05:07;99862.53;;;8.47;100.00
5753;BME280;2901;42.140;24.760;2022-11-30T07:07:33;99862.59;;;8.53;100.00
5753;BME280;2901;42.140;24.760;2022-11-30T07:09:58;99863.47;;;8.55;100.00
5753;BME280;2901;42.140;24.760;2022-11-30T07:12:24;99866.13;;;8.62;100.00
5753;BME280;2901;42.140;24.760;2022-11-30T07:14:49;99865.28;;;8.69;100.00
5753;BME280;2901;42.140;24.760;2022-11-30T07:17:18;99867.13;;;8.87;100.00
5753;BME280;2901;42.140;24.760;2022-11-30T07:19:43;99865.41;;;8.84;100.00
5753;BME280;2901;42.140;24.760;2022-11-30T07:22:09;99871.41;;;8.79;100.00
5753;BME280;2901;42.140;24.760;2022-11-30T07:24:34;99879.16;;;8.83;100.00
5753;BME280;2901;42.140;24.760;2022-11-30T07:27:18;99872.22;;;8.76;100.00
5753;BME280;2901;42.140;24.760;2022-11-30T07:29:43;99878.31;;;8.84;100.00
5753;BME280;2901;42.140;24.760;2022-11-30T07:32:09;99882.56;;;8.82;100.00
5753;BME280;2901;42.140;24.760;2022-11-30T07:34:34;99885.19;;;8.84;100.00
5753;BME280;2901;42.140;24.760;2022-11-30T07:37:00;99877.38;;;8.76;100.00
5753;BME280;2901;42.140;24.760;2022-11-30T07:39:25;99873.09;;;8.77;100.00
5753;BME280;2901;42.140;24.760;2022-11-30T07:41:50;99871.34;;;8.76;100.00
5753;BME280;2901;42.140;24.760;2022-11-30T07:44:16;99876.59;;;8.86;100.00
5753;BME280;2901;42.140;24.760;2022-11-30T07:46:41;99880.84;;;8.80;100.00
5753;BME280;2901;42.140;24.760;2022-11-30T07:49:09;99884.31;;;8.83;100.00
5753;BME280;2901;42.140;24.760;2022-11-30T07:51:35;99881.78;;;8.91;100.00
5753;BME280;2901;42.140;24.760;2022-11-30T07:54:01;99886.88;;;8.79;100.00
5753;BME280;2901;42.140;24.760;2022-11-30T07:56:27;99880.03;;;8.84;100.00
5753;BME280;2901;42.140;24.760;2022-11-30T07:58:58;99888.59;;;8.80;100.00
5753;BME280;2901;42.140;24.760;2022-11-30T08:01:29;99890.31;;;8.78;100.00
5753;BME280;2901;42.140;24.760;2022-11-30T08:03:55;99883.41;;;8.77;100.00
5753;BME280;2901;42.140;24.760;2022-11-30T08:06:23;99881.69;;;8.74;100.00
5753;BME280;2901;42.140;24.760;2022-11-30T08:08:51;99879.06;;;8.71;100.00
5753;BME280;2901;42.140;24.760;2022-11-30T08:11:22;99878.19;;;8.68;100.00
5753;BME280;2901;42.140;24.760;2022-11-30T08:13:47;99884.31;;;8.80;100.00
5753;BME280;2901;42.140;24.760;2022-11-30T08:16:16;99885.16;;;8.81;100.00
5753;BME280;2901;42.140;24.760;2022-11-30T08:18:42;99880.97;;;8.98;100.00
5753;BME280;2901;42.140;24.760;2022-11-30T08:21:10;99889.63;;;9.02;100.00
5753;BME280;2901;42.140;24.760;2022-11-30T08:23:56;99887.13;;;9.15;100.00
5753;BME280;2901;42.140;24.760;2022-11-30T08:28:49;99884.53;;;9.15;100.00
5753;BME280;2901;42.140;24.760;2022-11-30T08:31:18;99878.47;;;9.13;100.00
5753;BME280;2901;42.140;24.760;2022-11-30T08:33:44;99888.75;;;9.01;100.00
5753;BME280;2901;42.140;24.760;2022-11-30T08:36:15;99883.56;;;8.98;100.00
5753;BME280;2901;42.140;24.760;2022-11-30T08:38:43;99879.25;;;9.00;100.00
5753;BME280;2901;42.140;24.760;2022-11-30T08:41:10;99880.16;;;9.02;100.00
5753;BME280;2901;42.140;24.760;2022-11-30T08:43:35;99880.09;;;8.96;100.00
5753;BME280;2901;42.140;24.760;2022-11-30T08:46:02;99866.31;;;8.94;100.00
5753;BME280;2901;42.140;24.760;2022-11-30T08:48:28;99868.09;;;9.04;100.00
5753;BME280;2901;42.140;24.760;2022-11-30T08:50:58;99871.50;;;9.00;100.00
5753;BME280;2901;42.140;24.760;2022-11-30T08:53:24;99874.13;;;9.09;100.00
5753;BME280;2901;42.140;24.760;2022-11-30T08:56:03;99873.28;;;9.10;100.00
5753;BME280;2901;42.140;24.760;2022-11-30T08:58:31;99878.47;;;9.16;100.00
5753;BME280;2901;42.140;24.760;2022-11-30T09:01:11;99873.31;;;9.13;100.00
5753;BME280;2901;42.140;24.760;2022-11-30T09:03:38;99878.50;;;9.19;100.00
5753;BME280;2901;42.140;24.760;2022-11-30T09:06:13;99876.81;;;9.24;100.00
5753;BME280;2901;42.140;24.760;2022-11-30T09:08:42;99879.41;;;9.26;100.00
5753;BME280;2901;42.140;24.760;2022-11-30T09:13:41;99878.50;;;9.19;100.00
5753;BME280;2901;42.140;24.760;2022-11-30T09:16:07;99871.66;;;9.27;100.00
5753;BME280;2901;42.140;24.760;2022-11-30T09:18:33;99876.81;;;9.27;100.00
5753;BME280;2901;42.140;24.760;2022-11-30T09:21:07;99872.50;;;9.23;100.00
5753;BME280;2901;42.140;24.760;2022-11-30T09:23:33;99867.34;;;9.23;100.00
5753;BME280;2901;42.140;24.760;2022-11-30T09:26:01;99871.63;;;9.21;100.00
5753;BME280;2901;42.140;24.760;2022-11-30T09:28:27;99861.22;;;9.06;100.00
5753;BME280;2901;42.140;24.760;2022-11-30T09:31:00;99869.88;;;9.16;100.00
5753;BME280;2901;42.140;24.760;2022-11-30T09:33:26;99871.63;;;9.20;100.00
5753;BME280;2901;42.140;24.760;2022-11-30T09:35:56;99869.91;;;9.23;100.00
5753;BME280;2901;42.140;24.760;2022-11-30T09:38:22;99869.91;;;9.23;100.00
5753;BME280;2901;42.140;24.760;2022-11-30T09:40:55;99864.75;;;9.29;100.00
5753;BME280;2901;42.140;24.760;2022-11-30T09:46:04;99861.34;;;9.36;100.00
5753;BME280;2901;42.140;24.760;2022-11-30T09:51:15;99860.53;;;9.41;100.00
5753;BME280;2901;42.140;24.760;2022-11-30T09:53:44;99854.44;;;9.35;100.00
5753;BME280;2901;42.140;24.760;2022-11-30T09:56:33;99862.25;;;9.42;100.00
5753;BME280;2901;42.140;24.760;2022-11-30T09:59:24;99854.44;;;9.32;100.00
5753;BME280;2901;42.140;24.760;2022-11-30T10:01:54;99861.34;;;9.36;100.00
5753;BME280;2901;42.140;24.760;2022-11-30T10:04:28;99858.78;;;9.38;100.00
5753;BME280;2901;42.140;24.760;2022-11-30T10:09:26;99870.84;;;9.42;100.00
5753;BME280;2901;42.140;24.760;2022-11-30T10:12:04;99867.44;;;9.42;100.00
5753;BME280;2901;42.140;24.760;2022-11-30T10:14:59;99863.97;;;9.41;100.00
5753;BME280;2901;42.140;24.760;2022-11-30T10:18:01;99868.28;;;9.41;100.00
5753;BME280;2901;42.140;24.760;2022-11-30T10:20:37;99863.94;;;9.39;100.00
5753;BME280;2901;42.140;24.760;2022-11-30T10:23:17;99869.97;;;9.38;100.00
5753;BME280;2901;42.140;24.760;2022-11-30T10:28:50;99863.09;;;9.37;100.00
5753;BME280;2901;42.140;24.760;2022-11-30T10:31:22;99863.09;;;9.37;100.00
5753;BME280;2901;42.140;24.760;2022-11-30T10:33:53;99862.25;;;9.46;100.00
5753;BME280;2901;42.140;24.760;2022-11-30T10:38:51;99856.28;;;9.55;100.00
5753;BME280;2901;42.140;24.760;2022-11-30T10:41:29;99859.75;;;9.69;100.00
5753;BME280;2901;42.140;24.760;2022-11-30T10:44:25;99863.25;;;9.90;100.00
5753;BME280;2901;42.140;24.760;2022-11-30T10:47:02;99861.56;;;10.09;100.00
5753;BME280;2901;42.140;24.760;2022-11-30T10:49:30;99862.47;;;10.16;100.00
5753;BME280;2901;42.140;24.760;2022-11-30T10:52:04;99868.47;;;10.07;100.00
5753;BME280;2901;42.140;24.760;2022-11-30T10:54:34;99860.69;;;9.90;100.00
5753;BME280;2901;42.140;24.760;2022-11-30T10:57:01;99865.84;;;9.90;100.00
5753;BME280;2901;42.140;24.760;2022-11-30T10:59:45;99861.50;;;9.85;100.00
5753;BME280;2901;42.140;24.760;2022-11-30T11:02:33;99860.63;;;9.77;100.00
5753;BME280;2901;42.140;24.760;2022-11-30T11:10:27;99855.41;;;9.60;100.00
5753;BME280;2901;42.140;24.760;2022-11-30T11:12:54;99850.25;;;9.69;100.00
5753;BME280;2901;42.140;24.760;2022-11-30T11:15:33;99845.13;;;9.71;100.00
5753;BME280;2901;42.140;24.760;2022-11-30T11:20:37;99839.03;;;9.54;100.00
5753;BME280;2901;42.140;24.760;2022-11-30T11:23:19;99845.88;;;9.49;100.00
5753;BME280;2901;42.140;24.760;2022-11-30T11:25:49;99840.78;;;9.64;100.00
5753;BME280;2901;42.140;24.760;2022-11-30T11:28:17;99837.34;;;9.68;100.00
5753;BME280;2901;42.140;24.760;2022-11-30T11:30:45;99838.22;;;9.74;100.00
5753;BME280;2901;42.140;24.760;2022-11-30T11:35:39;99838.22;;;9.82;100.00
5753;BME280;2901;42.140;24.760;2022-11-30T11:38:26;99831.34;;;9.84;100.00
5753;BME280;2901;42.140;24.760;2022-11-30T11:40:59;99831.34;;;9.84;100.00
5753;BME280;2901;42.140;24.760;2022-11-30T11:43:28;99826.16;;;9.78;100.00
5753;BME280;2901;42.140;24.760;2022-11-30T11:45:57;99837.38;;;9.80;100.00
5753;BME280;2901;42.140;24.760;2022-11-30T11:48:36;99833.06;;;9.74;100.00
5753;BME280;2901;42.140;24.760;2022-11-30T11:51:10;99835.59;;;9.68;100.00
5753;BME280;2901;42.140;24.760;2022-11-30T11:56:26;99833.88;;;9.72;100.00
5753;BME280;2901;42.140;24.760;2022-11-30T12:04:45;99833.00;;;9.59;100.00
5753;BME280;2901;42.140;24.760;2022-11-30T12:07:33;99835.56;;;9.52;100.00
5753;BME280;2901;42.140;24.760;2022-11-30T12:12:49;99843.34;;;9.62;100.00
5753;BME280;2901;42.140;24.760;2022-11-30T12:15:15;99858.06;;;9.74;100.00
5753;BME280;2901;42.140;24.760;2022-11-30T12:18:07;99849.44;;;9.78;100.00
5753;BME280;2901;42.140;24.760;2022-11-30T12:34:56;99853.72;;;9.76;100.00
5753;BME280;2901;42.140;24.760;2022-11-30T12:37:39;99856.34;;;9.83;100.00
5753;BME280;2901;42.140;24.760;2022-11-30T12:40:56;99860.66;;;9.89;100.00
5753;BME280;2901;42.140;24.760;2022-11-30T12:46:11;99862.38;;;9.95;100.00
5753;BME280;2901;42.140;24.760;2022-11-30T12:49:06;99868.44;;;10.01;100.00
5753;BME280;2901;42.140;24.760;2022-11-30T12:51:50;99870.19;;;10.01;100.00
5753;BME280;2901;42.140;24.760;2022-11-30T12:57:12;99868.47;;;10.13;100.00
5753;BME280;2901;42.140;24.760;2022-11-30T13:04:49;99868.50;;;10.16;100.00
5753;BME280;2901;42.140;24.760;2022-11-30T13:10:32;99877.94;;;10.13;100.00
5753;BME280;2901;42.140;24.760;2022-11-30T13:12:55;99872.78;;;10.10;100.00
5753;BME280;2901;42.140;24.760;2022-11-30T13:15:24;99870.16;;;10.08;100.00
5753;BME280;2901;42.140;24.760;2022-11-30T13:17:52;99868.44;;;10.01;100.00
5753;BME280;2901;42.140;24.760;2022-11-30T13:25:47;99873.59;;;10.01;100.00
5753;BME280;2901;42.140;24.760;2022-11-30T13:28:45;99882.25;;;10.00;100.00
5753;BME280;2901;42.140;24.760;2022-11-30T13:31:24;99871.91;;;9.94;100.00
5753;BME280;2901;42.140;24.760;2022-11-30T13:36:38;99879.63;;;9.88;100.00
5753;BME280;2901;42.140;24.760;2022-11-30T13:41:43;99872.72;;;9.85;100.00
5753;BME280;2901;42.140;24.760;2022-11-30T13:46:53;99862.41;;;9.93;100.00
5753;BME280;2901;42.140;24.760;2022-11-30T13:49:21;99867.56;;;9.91;100.00
5753;BME280;2901;42.140;24.760;2022-11-30T13:51:48;99857.22;;;9.87;100.00
5753;BME280;2901;42.140;24.760;2022-11-30T13:54:39;99858.03;;;9.71;100.00
5753;BME280;2901;42.140;24.760;2022-11-30T13:57:55;99859.72;;;9.60;100.00
5753;BME280;2901;42.140;24.760;2022-11-30T14:05:57;99870.00;;;9.42;100.00
5753;BME280;2901;42.140;24.760;2022-11-30T14:10:49;99865.66;;;9.34;100.00
5753;BME280;2901;42.140;24.760;2022-11-30T14:20:43;99868.19;;;9.22;100.00
5753;BME280;2901;42.140;24.760;2022-11-30T14:23:13;99873.34;;;9.22;100.00
5753;BME280;2901;42.140;24.760;2022-11-30T14:25:48;99873.31;;;9.13;100.00
5753;BME280;2901;42.140;24.760;2022-11-30T14:28:42;99875.03;;;9.19;100.00
5753;BME280;2901;42.140;24.760;2022-11-30T14:31:11;99866.41;;;9.12;100.00
5753;BME280;2901;42.140;24.760;2022-11-30T14:33:54;99863.81;;;9.08;100.00
5753;BME280;2901;42.140;24.760;2022-11-30T14:36:26;99871.59;;;9.17;100.00
5753;BME280;2901;42.140;24.760;2022-11-30T14:38:52;99875.94;;;9.21;100.00
5753;BME280;2901;42.140;24.760;2022-11-30T14:41:23;99874.25;;;9.29;100.00
5753;BME280;2901;42.140;24.760;2022-11-30T14:44:15;99874.22;;;9.23;100.00
5753;BME280;2901;42.140;24.760;2022-11-30T14:46:41;99874.19;;;9.15;100.00
5753;BME280;2901;42.140;24.760;2022-11-30T14:49:14;99858.66;;;9.08;100.00
5753;BME280;2901;42.140;24.760;2022-11-30T14:51:45;99871.63;;;9.23;100.00
5753;BME280;2901;42.140;24.760;2022-11-30T14:57:04;99868.19;;;9.24;100.00
5753;BME280;2901;42.140;24.760;2022-11-30T15:00:00;99864.75;;;9.26;100.00
5753;BME280;2901;42.140;24.760;2022-11-30T15:02:34;99875.97;;;9.27;100.00
5753;BME280;2901;42.140;24.760;2022-11-30T15:05:06;99875.16;;;9.37;100.00
5753;BME280;2901;42.140;24.760;2022-11-30T15:10:48;99869.97;;;9.37;100.00
5753;BME280;2901;42.140;24.760;2022-11-30T15:16:35;99881.97;;;9.24;100.00